Time,TemperatureF,DewpointF,PressureIn,WindDirection,WindDirectionDegrees,WindSpeedMPH,WindSpeedGustMPH,Humidity,HourlyPrecipIn,Conditions,Clouds,dailyrainin,SoftwareType,DateUTC
2013-02-06 00:01:00,46.0,45.0,29.97,North,-999,0.0,0.0,98,0.00,,,-99.99,,2013-02-06 08:01:00,
2013-02-06 00:11:00,46.0,45.0,29.97,East,90,3.0,6.0,96,0.00,,,-99.99,,2013-02-06 08:11:00,
2013-02-06 00:21:00,46.0,45.0,29.97,East,90,3.0,6.0,96,0.00,,,-99.99,,2013-02-06 08:21:00,
2013-02-06 00:31:00,47.0,44.0,29.97,East,100,2.0,2.0,90,0.00,,,-99.99,,2013-02-06 08:31:00,
2013-02-06 00:41:00,47.0,44.0,29.97,WSW,250,4.0,8.0,88,0.00,,,-99.99,,2013-02-06 08:41:00,
2013-02-06 00:53:00,47.0,44.0,29.97,WSW,250,4.0,8.0,88,0.00,,,-99.99,,2013-02-06 08:53:00,
2013-02-06 01:00:00,45.0,43.0,30.00,North,-999,0.0,0.0,93,0.00,,,-99.99,,2013-02-06 09:00:00,
2013-02-06 01:01:00,46.0,43.0,29.98,West,260,1.0,2.0,90,0.00,,,-99.99,,2013-02-06 09:01:00,
2013-02-06 01:11:00,45.0,43.0,29.99,West,260,3.0,7.0,92,0.00,,,-99.99,,2013-02-06 09:11:00,
2013-02-06 01:21:00,45.0,43.0,29.99,West,260,3.0,7.0,92,0.00,,,-99.99,,2013-02-06 09:21:00,
2013-02-06 01:31:00,45.0,43.0,30.00,North,-999,0.0,0.0,93,0.00,,,-99.99,,2013-02-06 09:31:00,
2013-02-06 01:41:00,45.0,43.0,30.00,North,-999,0.0,0.0,93,0.00,,,-99.99,,2013-02-06 09:41:00,
2013-02-06 01:52:00,45.0,43.0,30.00,North,-999,0.0,0.0,93,0.00,,,-99.99,,2013-02-06 09:52:00,
2013-02-06 02:32:00,43.0,42.0,30.00,North,0,0.0,1.0,96,0.00,,,-99.99,,2013-02-06 10:32:00,
2013-02-06 02:42:00,43.0,42.0,30.00,West,280,1.0,3.0,96,0.00,,,-99.99,,2013-02-06 10:42:00,
2013-02-06 02:52:00,43.0,42.0,30.00,West,280,1.0,3.0,96,0.00,,,-99.99,,2013-02-06 10:52:00,
2013-02-06 03:01:00,43.0,42.0,30.01,North,-999,0.0,0.0,96,0.00,,,-99.99,,2013-02-06 11:01:00,
2013-02-06 03:11:00,43.0,42.0,30.01,North,0,0.0,4.0,96,0.00,,,-99.99,,2013-02-06 11:11:00,
2013-02-06 03:22:00,43.0,42.0,30.01,North,0,0.0,4.0,96,0.00,,,-99.99,,2013-02-06 11:22:00,
2013-02-06 03:32:00,43.0,42.0,30.00,West,280,1.0,1.0,97,0.00,,,-99.99,,2013-02-06 11:32:00,
2013-02-06 03:42:00,43.0,42.0,30.00,West,280,1.0,1.0,97,0.00,,,-99.99,,2013-02-06 11:42:00,
2013-02-06 03:53:00,43.0,42.0,30.00,West,280,1.0,1.0,97,0.00,,,-99.99,,2013-02-06 11:53:00,
2013-02-06 04:01:00,43.0,42.0,30.00,North,-999,0.0,0.0,97,0.00,,,-99.99,,2013-02-06 12:01:00,
2013-02-06 04:12:00,43.0,42.0,30.00,North,0,0.0,3.0,97,0.00,,,-99.99,,2013-02-06 12:12:00,
2013-02-06 04:22:00,43.0,42.0,30.00,North,0,0.0,3.0,97,0.00,,,-99.99,,2013-02-06 12:22:00,
2013-02-06 04:32:00,43.0,42.0,30.00,WNW,300,2.0,3.0,97,0.00,,,-99.99,,2013-02-06 12:32:00,
2013-02-06 04:42:00,43.0,42.0,30.00,WNW,300,2.0,3.0,97,0.00,,,-99.99,,2013-02-06 12:42:00,
2013-02-06 04:52:00,43.0,42.0,30.00,WNW,300,2.0,3.0,97,0.00,,,-99.99,,2013-02-06 12:52:00,
2013-02-06 05:01:00,42.0,41.0,30.02,NW,310,3.0,3.0,97,0.00,,,-99.99,,2013-02-06 13:01:00,
2013-02-06 05:31:00,42.0,41.0,30.01,NW,310,8.0,8.0,97,0.00,,,-99.99,,2013-02-06 13:31:00,
2013-02-06 05:42:00,42.0,41.0,30.01,NW,310,8.0,8.0,97,0.00,,,-99.99,,2013-02-06 13:42:00,
2013-02-06 05:52:00,42.0,41.0,30.01,NW,310,8.0,8.0,97,0.00,,,-99.99,,2013-02-06 13:52:00,
2013-02-06 06:01:00,43.0,38.0,30.03,WNW,290,3.0,6.0,84,0.00,,,-99.99,,2013-02-06 14:01:00,
2013-02-06 06:11:00,43.0,38.0,30.03,WNW,290,3.0,6.0,84,0.00,,,-99.99,,2013-02-06 14:11:00,
2013-02-06 06:21:00,43.0,38.0,30.03,WNW,290,3.0,6.0,84,0.00,,,-99.99,,2013-02-06 14:21:00,
2013-02-06 06:31:00,43.0,38.0,30.05,North,0,0.0,1.0,82,0.00,,,-99.99,,2013-02-06 14:31:00,
2013-02-06 06:42:00,43.0,38.0,30.05,North,0,0.0,1.0,82,0.00,,,-99.99,,2013-02-06 14:42:00,
2013-02-06 06:52:00,43.0,38.0,30.05,North,0,0.0,1.0,82,0.00,,,-99.99,,2013-02-06 14:52:00,
2013-02-06 07:01:00,43.0,39.0,30.07,North,0,0.0,2.0,86,0.00,,,-99.99,,2013-02-06 15:01:00,
2013-02-06 07:11:00,43.0,39.0,30.07,North,0,0.0,2.0,86,0.00,,,-99.99,,2013-02-06 15:11:00,
2013-02-06 07:21:00,43.0,39.0,30.07,North,0,0.0,2.0,86,0.00,,,-99.99,,2013-02-06 15:21:00,
2013-02-06 07:31:00,44.0,39.0,30.08,West,260,3.0,4.0,84,0.00,,,-99.99,,2013-02-06 15:31:00,
2013-02-06 07:42:00,44.0,39.0,30.08,West,260,3.0,4.0,84,0.00,,,-99.99,,2013-02-06 15:42:00,
2013-02-06 07:52:00,44.0,39.0,30.08,West,260,3.0,4.0,84,0.00,,,-99.99,,2013-02-06 15:52:00,
2013-02-06 08:01:00,43.0,38.0,30.10,North,0,0.0,3.0,82,0.00,,,-99.99,,2013-02-06 16:01:00,
2013-02-06 08:32:00,42.0,38.0,30.12,North,-999,0.0,0.0,87,0.00,,,-99.99,,2013-02-06 16:32:00,
2013-02-06 08:42:00,44.0,38.0,30.12,North,0,0.0,3.0,79,0.00,,,-99.99,,2013-02-06 16:42:00,
2013-02-06 08:52:00,44.0,38.0,30.12,North,0,0.0,3.0,79,0.00,,,-99.99,,2013-02-06 16:52:00,
2013-02-06 09:01:00,45.0,42.0,30.13,North,-999,0.0,0.0,88,0.00,,,-99.99,,2013-02-06 17:01:00,
2013-02-06 09:11:00,45.0,42.0,30.13,North,-999,0.0,0.0,88,0.00,,,-99.99,,2013-02-06 17:11:00,
2013-02-06 09:21:00,45.0,42.0,30.13,North,-999,0.0,0.0,88,0.00,,,-99.99,,2013-02-06 17:21:00,
2013-02-06 09:32:00,46.0,42.0,30.14,North,-999,0.0,0.0,87,0.00,,,-99.99,,2013-02-06 17:32:00,
2013-02-06 09:42:00,46.0,42.0,30.14,North,-999,0.0,0.0,87,0.00,,,-99.99,,2013-02-06 17:42:00,
2013-02-06 09:52:00,46.0,42.0,30.14,North,-999,0.0,0.0,87,0.00,,,-99.99,,2013-02-06 17:52:00,
2013-02-06 10:01:00,46.0,43.0,30.15,North,0,0.0,1.0,90,0.00,,,-99.99,,2013-02-06 18:01:00,
2013-02-06 10:11:00,46.0,43.0,30.15,North,0,0.0,1.0,90,0.00,,,-99.99,,2013-02-06 18:11:00,
2013-02-06 10:22:00,46.0,43.0,30.15,North,0,0.0,1.0,90,0.00,,,-99.99,,2013-02-06 18:22:00,
2013-02-06 10:32:00,48.0,45.0,30.16,North,-999,0.0,0.0,88,0.00,,,-99.99,,2013-02-06 18:32:00,
2013-02-06 10:42:00,48.0,45.0,30.16,North,-999,0.0,0.0,88,0.00,,,-99.99,,2013-02-06 18:42:00,
2013-02-06 10:52:00,48.0,45.0,30.16,North,-999,0.0,0.0,88,0.00,,,-99.99,,2013-02-06 18:52:00,
2013-02-06 11:01:00,47.0,43.0,30.17,WSW,240,1.0,5.0,87,0.00,,,-99.99,,2013-02-06 19:01:00,
2013-02-06 11:11:00,47.0,43.0,30.17,WSW,240,1.0,5.0,87,0.00,,,-99.99,,2013-02-06 19:11:00,
2013-02-06 11:21:00,47.0,43.0,30.17,WSW,240,1.0,5.0,87,0.00,,,-99.99,,2013-02-06 19:21:00,
2013-02-06 12:01:00,51.0,46.0,30.16,North,0,0.0,1.0,83,0.00,,,-99.99,,2013-02-06 20:01:00,
2013-02-06 12:11:00,51.0,46.0,30.16,North,0,0.0,1.0,83,0.00,,,-99.99,,2013-02-06 20:11:00,
2013-02-06 12:21:00,51.0,46.0,30.16,North,0,0.0,1.0,83,0.00,,,-99.99,,2013-02-06 20:21:00,
2013-02-06 12:31:00,52.0,46.0,30.14,ENE,60,3.0,3.0,81,0.00,,,-99.99,,2013-02-06 20:31:00,
2013-02-06 12:42:00,52.0,46.0,30.14,ENE,60,3.0,3.0,81,0.00,,,-99.99,,2013-02-06 20:42:00,
2013-02-06 12:52:00,52.0,46.0,30.14,ENE,60,3.0,3.0,81,0.00,,,-99.99,,2013-02-06 20:52:00,
2013-02-06 13:01:00,54.0,46.0,30.13,North,0,0.0,1.0,75,0.00,,,-99.99,,2013-02-06 21:01:00,
2013-02-06 13:11:00,54.0,46.0,30.13,North,0,0.0,1.0,75,0.00,,,-99.99,,2013-02-06 21:11:00,
2013-02-06 13:21:00,54.0,46.0,30.13,North,0,0.0,1.0,75,0.00,,,-99.99,,2013-02-06 21:21:00,
2013-02-06 13:31:00,55.0,46.0,30.12,North,0,0.0,1.0,72,0.00,,,-99.99,,2013-02-06 21:31:00,
2013-02-06 13:42:00,55.0,46.0,30.12,North,0,0.0,1.0,72,0.00,,,-99.99,,2013-02-06 21:42:00,
2013-02-06 13:52:00,55.0,46.0,30.12,North,0,0.0,1.0,72,0.00,,,-99.99,,2013-02-06 21:52:00,
2013-02-06 14:01:00,57.0,46.0,30.11,North,0,0.0,1.0,67,0.00,,,-99.99,,2013-02-06 22:01:00,
2013-02-06 14:11:00,57.0,46.0,30.11,North,0,0.0,1.0,67,0.00,,,-99.99,,2013-02-06 22:11:00,
2013-02-06 14:21:00,57.0,46.0,30.11,North,0,0.0,1.0,67,0.00,,,-99.99,,2013-02-06 22:21:00,
2013-02-06 14:31:00,58.0,46.0,30.11,North,0,0.0,2.0,64,0.00,,,-99.99,,2013-02-06 22:31:00,
2013-02-06 14:42:00,58.0,46.0,30.11,North,0,0.0,2.0,64,0.00,,,-99.99,,2013-02-06 22:42:00,
2013-02-06 14:52:00,58.0,46.0,30.11,North,0,0.0,2.0,64,0.00,,,-99.99,,2013-02-06 22:52:00,
2013-02-06 15:01:00,58.0,44.0,30.11,North,0,0.0,1.0,59,0.00,,,-99.99,,2013-02-06 23:01:00,
2013-02-06 15:11:00,58.0,44.0,30.11,North,0,0.0,1.0,59,0.00,,,-99.99,,2013-02-06 23:11:00,
2013-02-06 15:21:00,58.0,44.0,30.11,North,0,0.0,1.0,59,0.00,,,-99.99,,2013-02-06 23:21:00,
2013-02-06 15:31:00,58.0,44.0,30.12,North,0,0.0,1.0,60,0.00,,,-99.99,,2013-02-06 23:31:00,
2013-02-06 15:42:00,58.0,44.0,30.12,North,0,0.0,1.0,60,0.00,,,-99.99,,2013-02-06 23:42:00,
2013-02-06 15:52:00,58.0,44.0,30.12,North,0,0.0,1.0,60,0.00,,,-99.99,,2013-02-06 23:52:00,
2013-02-06 16:01:00,59.0,47.0,30.12,ESE,120,1.0,2.0,64,0.00,,,-99.99,,2013-02-07 00:01:00,
2013-02-06 16:11:00,59.0,47.0,30.12,ESE,120,1.0,2.0,64,0.00,,,-99.99,,2013-02-07 00:11:00,
2013-02-06 16:21:00,59.0,47.0,30.12,ESE,120,1.0,2.0,64,0.00,,,-99.99,,2013-02-07 00:21:00,
2013-02-06 16:31:00,56.0,47.0,30.12,North,0,0.0,1.0,72,0.00,,,-99.99,,2013-02-07 00:31:00,
2013-02-06 16:42:00,56.0,47.0,30.12,North,0,0.0,1.0,72,0.00,,,-99.99,,2013-02-07 00:42:00,
2013-02-06 16:52:00,56.0,47.0,30.12,North,0,0.0,1.0,72,0.00,,,-99.99,,2013-02-07 00:52:00,
2013-02-06 17:01:00,56.0,46.0,30.11,SW,220,2.0,3.0,70,0.00,,,-99.99,,2013-02-07 01:01:00,
2013-02-06 17:11:00,56.0,46.0,30.11,SW,220,2.0,3.0,70,0.00,,,-99.99,,2013-02-07 01:11:00,
2013-02-06 17:21:00,56.0,46.0,30.11,SW,220,2.0,3.0,70,0.00,,,-99.99,,2013-02-07 01:21:00,
2013-02-06 17:31:00,52.0,46.0,30.11,East,100,3.0,4.0,80,0.00,,,-99.99,,2013-02-07 01:31:00,
2013-02-06 17:42:00,52.0,46.0,30.11,East,100,3.0,4.0,80,0.00,,,-99.99,,2013-02-07 01:42:00,
2013-02-06 17:52:00,52.0,46.0,30.11,East,100,3.0,4.0,80,0.00,,,-99.99,,2013-02-07 01:52:00,
2013-02-06 18:01:00,52.0,44.0,30.11,North,-999,0.0,0.0,74,0.00,,,-99.99,,2013-02-07 02:01:00,
2013-02-06 18:11:00,52.0,44.0,30.11,North,-999,0.0,0.0,74,0.00,,,-99.99,,2013-02-07 02:11:00,
2013-02-06 18:21:00,52.0,44.0,30.11,North,-999,0.0,0.0,74,0.00,,,-99.99,,2013-02-07 02:21:00,
2013-02-06 18:31:00,52.0,46.0,30.12,North,0,0.0,3.0,80,0.00,,,-99.99,,2013-02-07 02:31:00,
2013-02-06 18:42:00,52.0,46.0,30.12,North,0,0.0,3.0,80,0.00,,,-99.99,,2013-02-07 02:42:00,
2013-02-06 18:52:00,52.0,46.0,30.12,North,0,0.0,3.0,80,0.00,,,-99.99,,2013-02-07 02:52:00,
2013-02-06 19:01:00,53.0,27.0,30.12,North,-999,0.0,0.0,36,0.00,,,-99.99,,2013-02-07 03:01:00,
2013-02-06 19:31:00,55.0,26.0,30.15,ENE,60,2.0,2.0,32,0.00,,,-99.99,,2013-02-07 03:31:00,
2013-02-06 19:42:00,55.0,26.0,30.15,ENE,60,2.0,2.0,32,0.00,,,-99.99,,2013-02-07 03:42:00,
2013-02-06 19:52:00,55.0,26.0,30.15,ENE,60,2.0,2.0,32,0.00,,,-99.99,,2013-02-07 03:52:00,
2013-02-06 20:01:00,55.0,24.0,30.17,North,-999,0.0,0.0,30,0.00,,,-99.99,,2013-02-07 04:01:00,
2013-02-06 20:31:00,54.0,31.0,30.18,North,0,0.0,4.0,42,0.00,,,-99.99,,2013-02-07 04:31:00,
2013-02-06 20:42:00,54.0,31.0,30.18,North,0,0.0,4.0,42,0.00,,,-99.99,,2013-02-07 04:42:00,
2013-02-06 20:53:00,54.0,31.0,30.18,North,0,0.0,4.0,42,0.00,,,-99.99,,2013-02-07 04:53:00,
2013-02-06 21:01:00,54.0,31.0,30.17,North,0,0.0,2.0,42,0.00,,,-99.99,,2013-02-07 05:01:00,
2013-02-06 21:32:00,54.0,25.0,30.18,WNW,290,2.0,2.0,32,0.00,,,-99.99,,2013-02-07 05:32:00,
2013-02-06 21:42:00,54.0,25.0,30.18,WNW,290,2.0,2.0,32,0.00,,,-99.99,,2013-02-07 05:42:00,
2013-02-06 21:52:00,55.0,25.0,30.18,North,0,0.0,2.0,31,0.00,,,-99.99,,2013-02-07 05:52:00,
2013-02-06 22:01:00,54.0,31.0,30.18,North,-999,0.0,0.0,42,0.00,,,-99.99,,2013-02-07 06:01:00,
2013-02-06 22:31:00,53.0,35.0,30.18,North,-999,0.0,0.0,50,0.00,,,-99.99,,2013-02-07 06:31:00,
2013-02-06 22:43:00,52.0,30.0,30.18,North,-999,0.0,0.0,43,0.00,,,-99.99,,2013-02-07 06:43:00,
2013-02-06 22:52:00,52.0,30.0,30.18,North,-999,0.0,0.0,43,0.00,,,-99.99,,2013-02-07 06:52:00,
2013-02-06 23:01:00,52.0,36.0,30.19,North,-999,0.0,0.0,55,0.00,,,-99.99,,2013-02-07 07:01:00,
2013-02-06 23:11:00,52.0,34.0,30.19,North,0,0.0,2.0,50,0.00,,,-99.99,,2013-02-07 07:11:00,
2013-02-06 23:21:00,52.0,34.0,30.19,North,0,0.0,2.0,50,0.00,,,-99.99,,2013-02-07 07:21:00,
2013-02-06 23:31:00,51.0,37.0,30.18,WNW,290,1.0,3.0,58,0.00,,,-99.99,,2013-02-07 07:31:00,
2013-02-06 23:41:00,51.0,31.0,30.18,North,0,0.0,3.0,47,0.00,,,-99.99,,2013-02-07 07:41:00,
2013-02-06 23:52:00,51.0,31.0,30.18,North,0,0.0,3.0,47,0.00,,,-99.99,,2013-02-07 07:52:00,